Airfield :
LOGIN :

Register | Disclaimer

   EN    FR    IT 

 










Legend :    VFR   Marginal VFR   IFR   Intensive IFR   Very Intensive IFR
Visi :
Ceiling :
>= 8 km
>= 3000ft
5 to 8 km
1000 to 3000 ft
1500m to 5 km
500 to 1000 ft
800 to 1500m
200 to 500 ft
< 800m
< 200 ft
Symbols :   Thunderstorms  Fog  Heavy snow  Heavy precipitations  Wind > 20 kt
SIGMETs :     Misc.  Thunderstorms  Icing  Turbulence  Mountain Waves  Volcanic Ashes







- Airport Elevation : 464 ft
- IATA code : EVX
- Download approach charts


LFOE - Evreux

CURRENT METAR :
  • 100230Z AUTO 25007KT 9999 FEW023/// SCT043/// ///TCU 07/05 Q1025 TEMPO 3000 BR BKN003

EXPIRED METARs :
  • 100200Z AUTO 27008KT 9999 BKN024/// BKN044/// BKN050/// ///TCU 07/05 Q1025 TEMPO 3000 BR BKN003
  • 100130Z AUTO 26008KT 9999 FEW026 06/05 Q1025 TEMPO 3000 BR BKN003
  • 100100Z AUTO 26006KT 9999 FEW024 06/06 Q1025 TEMPO 3000 BR BKN003
  • 100030Z AUTO 26006KT 9999 FEW009 06/05 Q1025 TEMPO 3000 BR BKN003
  • 100000Z AUTO 26004KT 9999 FEW009 06/05 Q1025 NOSIG

TAF TAF LFOE
Valid from the 10 at 03:00 until the 11 at 03:00 UTC


100200Z 1003/1103 26006KT 9999 SCT025
PROB30
TEMPO 1003/1009 3000 BR BKN003
BECMG 1020/1022 3000 BR BKN003
No reported NOTAMs for that airfield.



MET'MAP, your aeronautical weather chart ! - Copyright ORBIFLY December 2007 - Disclaimer

ORBIFLY MET'MAP TEAM :

Programming & Development : Alexandra Zaïnal
Concept & Development : Baudouin d'Aumeries
Co-Development & Prog : Marc-Olivier Méhu
Technical & hardware support : Manuel Goepfert

Contact : metmap@orbifly.com




SOURCES & CREDITS :

   NOAA